createdAt,value
2023-12-23T00:00:15.189Z,5.23
2023-12-23T00:02:17.679Z,5.15
2023-12-23T00:04:19.520Z,5.16
2023-12-23T00:06:21.308Z,5.07
2023-12-23T00:08:23.210Z,5.13
2023-12-23T00:10:25.150Z,5.20
2023-12-23T00:12:26.947Z,5.29
2023-12-23T00:14:28.749Z,5.13
2023-12-23T00:16:32.300Z,5.07
2023-12-23T00:18:34.139Z,5.15
2023-12-23T00:20:37.643Z,4.97
2023-12-23T00:22:39.543Z,4.93
2023-12-23T00:24:41.343Z,4.86
2023-12-23T00:26:43.257Z,4.81
2023-12-23T00:28:45.137Z,4.80
2023-12-23T00:30:47.063Z,4.61
2023-12-23T00:32:49.001Z,4.80
2023-12-23T00:34:50.862Z,4.94
2023-12-23T00:36:52.799Z,5.03
2023-12-23T00:38:54.667Z,4.94
2023-12-23T00:40:56.602Z,5.07
2023-12-23T00:42:58.362Z,5.02
2023-12-23T00:45:00.059Z,4.99
2023-12-23T00:47:01.953Z,5.01
2023-12-23T00:49:03.811Z,5.04
2023-12-23T00:51:06.963Z,5.01
2023-12-23T00:53:08.835Z,5.05
2023-12-23T00:55:10.663Z,4.87
2023-12-23T00:57:12.488Z,4.96
2023-12-23T00:59:14.330Z,5.02
2023-12-23T01:01:16.070Z,5.02
2023-12-23T01:03:18.000Z,4.98
2023-12-23T01:05:19.874Z,4.99
2023-12-23T01:07:22.141Z,4.60
2023-12-23T01:09:24.019Z,4.23
2023-12-23T01:11:26.211Z,3.99
2023-12-23T01:13:28.296Z,4.03
2023-12-23T01:15:30.156Z,4.31
2023-12-23T01:17:32.042Z,4.57
2023-12-23T01:19:34.335Z,4.85
2023-12-23T01:21:36.262Z,5.06
2023-12-23T01:23:37.984Z,5.07
2023-12-23T01:25:39.802Z,5.16
2023-12-23T01:27:41.542Z,5.19
2023-12-23T01:29:43.222Z,4.93
2023-12-23T01:31:45.100Z,4.73
2023-12-23T01:33:46.989Z,4.75
2023-12-23T01:35:48.737Z,4.88
2023-12-23T01:37:50.768Z,4.82
2023-12-23T01:39:52.699Z,4.81
2023-12-23T01:41:54.492Z,4.55
2023-12-23T01:43:56.371Z,4.45
2023-12-23T01:46:00.764Z,4.47
2023-12-23T01:48:02.691Z,4.54
2023-12-23T01:50:05.041Z,4.41
2023-12-23T01:52:07.048Z,4.01
2023-12-23T01:54:09.089Z,4.14
2023-12-23T01:56:11.629Z,4.13
2023-12-23T01:58:13.494Z,4.31
2023-12-23T02:00:15.539Z,4.36
2023-12-23T02:02:18.524Z,4.39
2023-12-23T02:04:20.365Z,4.68
2023-12-23T02:06:22.186Z,5.31
2023-12-23T02:08:24.150Z,5.80
2023-12-23T02:10:26.170Z,6.32
2023-12-23T02:12:39.888Z,6.75
2023-12-23T02:14:52.377Z,7.05
2023-12-23T02:16:54.300Z,7.17
2023-12-23T02:18:56.132Z,7.32
2023-12-23T02:20:57.892Z,7.36
2023-12-23T02:22:59.705Z,7.42
2023-12-23T02:25:01.564Z,7.38
2023-12-23T02:27:10.868Z,7.27
2023-12-23T02:29:13.484Z,7.39
2023-12-23T02:31:15.345Z,7.54
2023-12-23T02:33:17.806Z,7.68
2023-12-23T02:35:19.696Z,7.79
2023-12-23T02:37:21.532Z,7.78
2023-12-23T02:39:23.336Z,7.94
2023-12-23T02:41:25.053Z,7.86
2023-12-23T02:43:26.756Z,7.92
2023-12-23T02:45:28.663Z,7.95
2023-12-23T02:47:30.435Z,7.96
2023-12-23T02:49:32.154Z,7.96
2023-12-23T02:51:33.937Z,7.99
2023-12-23T02:53:35.709Z,7.89
2023-12-23T02:55:38.236Z,7.91
2023-12-23T02:57:40.083Z,8.02
2023-12-23T02:59:41.882Z,7.58
2023-12-23T03:01:43.614Z,7.15
2023-12-23T03:03:45.469Z,6.88
2023-12-23T03:05:47.235Z,6.22
2023-12-23T03:07:49.362Z,6.03
2023-12-23T03:09:51.149Z,5.91
2023-12-23T03:11:53.039Z,5.96
2023-12-23T03:13:55.111Z,5.80
2023-12-23T03:15:56.875Z,5.16
2023-12-23T03:17:58.887Z,4.96
2023-12-23T03:20:00.904Z,4.89
2023-12-23T03:22:03.381Z,4.83
2023-12-23T03:24:05.304Z,4.97
2023-12-23T03:26:08.888Z,4.72
2023-12-23T03:28:10.941Z,4.82
2023-12-23T03:30:13.251Z,4.76
2023-12-23T03:32:15.156Z,4.79
2023-12-23T03:34:16.899Z,4.88
2023-12-23T03:36:19.293Z,5.01
2023-12-23T03:38:23.338Z,4.61
2023-12-23T03:40:25.772Z,4.27
2023-12-23T03:42:27.537Z,4.05
2023-12-23T03:44:29.362Z,4.01
2023-12-23T03:46:31.342Z,4.14
2023-12-23T03:48:33.071Z,4.05
2023-12-23T03:50:34.919Z,4.18
2023-12-23T03:52:36.787Z,4.33
2023-12-23T03:54:38.625Z,4.51
2023-12-23T03:56:40.912Z,4.30
2023-12-23T03:58:42.732Z,4.31
2023-12-23T04:00:44.539Z,4.50
2023-12-23T04:02:46.283Z,4.55
2023-12-23T04:04:48.184Z,4.58
2023-12-23T04:06:50.041Z,4.66
2023-12-23T04:08:51.743Z,4.49
2023-12-23T04:10:53.508Z,4.26
2023-12-23T04:12:55.290Z,4.36
2023-12-23T04:14:57.003Z,4.68
2023-12-23T04:16:58.777Z,5.22
2023-12-23T04:19:00.604Z,5.86
2023-12-23T04:21:02.373Z,6.26
2023-12-23T04:23:04.284Z,6.59
2023-12-23T04:25:06.563Z,6.84
2023-12-23T04:27:08.679Z,7.12
2023-12-23T04:29:10.512Z,7.32
2023-12-23T04:31:12.535Z,7.06
2023-12-23T04:33:14.421Z,6.69
2023-12-23T04:35:16.351Z,6.13
2023-12-23T04:37:18.213Z,5.77
2023-12-23T04:39:19.976Z,5.50
2023-12-23T04:41:21.789Z,5.49
2023-12-23T04:43:23.571Z,4.95
2023-12-23T04:45:25.406Z,4.83
2023-12-23T04:47:27.233Z,4.96
2023-12-23T04:49:28.958Z,5.23
2023-12-23T04:51:30.720Z,5.59
2023-12-23T04:53:32.529Z,6.05
2023-12-23T04:55:34.283Z,6.52
2023-12-23T04:57:36.023Z,6.82
2023-12-23T04:59:37.724Z,6.71
2023-12-23T05:01:39.710Z,6.43
2023-12-23T05:03:42.056Z,5.43
2023-12-23T05:05:44.030Z,5.40
2023-12-23T05:07:45.923Z,5.47
2023-12-23T05:09:47.791Z,5.34
2023-12-23T05:11:49.518Z,5.15
2023-12-23T05:13:51.306Z,4.95
2023-12-23T05:15:53.312Z,4.99
2023-12-23T05:17:55.322Z,4.89
2023-12-23T05:19:57.837Z,4.97
2023-12-23T05:21:59.758Z,5.00
2023-12-23T05:24:01.506Z,4.91
2023-12-23T05:26:03.314Z,4.85
2023-12-23T05:28:05.430Z,4.87
2023-12-23T05:30:08.240Z,4.60
2023-12-23T05:32:10.340Z,4.41
2023-12-23T05:34:12.130Z,4.55
2023-12-23T05:36:14.025Z,4.54
2023-12-23T05:38:15.880Z,4.88
2023-12-23T05:40:17.613Z,5.39
2023-12-23T05:42:19.468Z,5.90
2023-12-23T05:44:21.380Z,6.38
2023-12-23T05:46:23.162Z,6.83
2023-12-23T05:48:25.132Z,7.14
2023-12-23T05:50:27.048Z,7.42
2023-12-23T05:52:28.885Z,7.63
2023-12-23T05:54:30.628Z,7.69
2023-12-23T05:56:32.442Z,7.91
2023-12-23T05:58:34.257Z,7.98
2023-12-23T06:00:36.030Z,8.08
2023-12-23T06:02:37.876Z,8.12
2023-12-23T06:04:39.626Z,8.18
2023-12-23T06:06:41.378Z,8.19
2023-12-23T06:08:43.157Z,8.27
2023-12-23T06:10:50.957Z,8.24
2023-12-23T06:12:59.408Z,8.35
2023-12-23T06:15:01.226Z,8.31
2023-12-23T06:17:03.075Z,8.43
2023-12-23T06:19:04.938Z,8.42
2023-12-23T06:21:06.661Z,8.39
2023-12-23T06:23:08.522Z,8.40
2023-12-23T06:25:10.270Z,8.50
2023-12-23T06:27:12.015Z,8.41
2023-12-23T06:29:13.953Z,8.35
2023-12-23T06:31:15.686Z,8.40
2023-12-23T06:33:17.486Z,8.41
2023-12-23T06:35:19.986Z,8.41
2023-12-23T06:37:21.777Z,8.42
2023-12-23T06:39:25.526Z,8.49
2023-12-23T06:41:27.425Z,8.51
2023-12-23T06:43:45.528Z,8.52
2023-12-23T06:45:51.850Z,8.69
2023-12-23T06:47:53.755Z,8.74
2023-12-23T06:49:55.704Z,8.72
2023-12-23T06:51:57.562Z,8.75
2023-12-23T06:54:00.037Z,8.74
2023-12-23T06:56:05.883Z,8.74
2023-12-23T06:58:08.408Z,8.70
2023-12-23T07:00:10.700Z,8.72
2023-12-23T07:02:12.596Z,8.71
2023-12-23T07:04:14.383Z,8.78
2023-12-23T07:06:16.290Z,8.75
2023-12-23T07:08:18.137Z,8.77
2023-12-23T07:10:19.906Z,8.79
2023-12-23T07:12:21.712Z,8.88
2023-12-23T07:14:23.901Z,8.87
2023-12-23T07:16:25.705Z,8.81
2023-12-23T07:18:27.592Z,8.80
2023-12-23T07:20:29.362Z,8.79
2023-12-23T07:22:31.205Z,8.82
2023-12-23T07:24:33.043Z,8.87
2023-12-23T07:26:36.324Z,8.92
2023-12-23T07:28:38.166Z,8.92
2023-12-23T07:30:46.186Z,9.02
2023-12-23T07:32:48.460Z,9.02
2023-12-23T07:34:50.961Z,9.06
2023-12-23T07:36:52.830Z,9.09
2023-12-23T07:38:54.541Z,9.16
2023-12-23T07:40:56.473Z,9.20
2023-12-23T07:42:58.312Z,9.22
2023-12-23T07:45:00.047Z,9.23
2023-12-23T07:47:01.877Z,9.30
2023-12-23T07:49:04.376Z,9.29
2023-12-23T07:51:10.020Z,9.20
2023-12-23T07:53:11.922Z,9.31
2023-12-23T07:55:13.810Z,9.38
2023-12-23T07:57:15.578Z,9.46
2023-12-23T07:59:17.508Z,9.65
2023-12-23T08:01:19.632Z,9.74
2023-12-23T08:03:21.434Z,9.72
2023-12-23T08:05:23.380Z,9.69
2023-12-23T08:07:25.171Z,9.63
2023-12-23T08:09:26.907Z,9.62
2023-12-23T08:11:28.788Z,9.76
2023-12-23T08:13:30.694Z,9.75
2023-12-23T08:15:32.485Z,9.97
2023-12-23T08:17:34.408Z,10.02
2023-12-23T08:19:36.264Z,10.04
2023-12-23T08:21:38.007Z,10.01
2023-12-23T08:23:40.095Z,9.99
2023-12-23T08:25:41.828Z,10.00
2023-12-23T08:27:43.620Z,9.95
2023-12-23T08:29:45.405Z,10.05
2023-12-23T08:31:47.350Z,10.15
2023-12-23T08:33:49.285Z,9.88
2023-12-23T08:35:51.126Z,9.77
2023-12-23T08:37:53.490Z,9.93
2023-12-23T08:39:55.738Z,9.92
2023-12-23T08:41:57.591Z,9.87
2023-12-23T08:43:59.459Z,9.64
2023-12-23T08:46:01.302Z,9.53
2023-12-23T08:48:03.248Z,9.53
2023-12-23T08:50:05.468Z,9.29
2023-12-23T08:52:07.710Z,8.64
2023-12-23T08:54:09.429Z,7.83
2023-12-23T08:56:11.311Z,7.54
2023-12-23T08:58:14.947Z,7.28
2023-12-23T09:00:16.946Z,7.14
2023-12-23T09:02:18.958Z,7.25
2023-12-23T09:04:20.734Z,7.18
2023-12-23T09:06:22.695Z,7.04
2023-12-23T09:08:24.578Z,7.23
2023-12-23T09:10:26.307Z,7.16
2023-12-23T09:12:28.035Z,7.00
2023-12-23T09:14:31.215Z,6.91
2023-12-23T09:16:33.038Z,6.95
2023-12-23T09:18:34.939Z,7.02
2023-12-23T09:20:36.773Z,7.17
2023-12-23T09:22:38.609Z,7.27
2023-12-23T09:24:42.702Z,6.72
2023-12-23T09:26:44.573Z,6.43
2023-12-23T09:28:46.294Z,6.27
2023-12-23T09:30:48.733Z,6.21
2023-12-23T09:32:51.217Z,6.31
2023-12-23T09:34:55.442Z,6.19
2023-12-23T09:36:57.328Z,6.01
2023-12-23T09:38:59.315Z,6.08
2023-12-23T09:41:01.218Z,5.99
2023-12-23T09:43:02.989Z,6.05
2023-12-23T09:45:05.494Z,5.95
2023-12-23T09:47:07.924Z,5.75
2023-12-23T09:49:09.767Z,5.46
2023-12-23T09:51:12.333Z,5.62
2023-12-23T09:53:15.113Z,5.74
2023-12-23T09:55:18.333Z,5.78
2023-12-23T09:57:20.794Z,5.20
2023-12-23T09:59:23.232Z,5.25
2023-12-23T10:01:25.154Z,5.42
2023-12-23T10:03:27.052Z,5.59
2023-12-23T10:05:29.273Z,5.33
2023-12-23T10:07:31.110Z,5.13
2023-12-23T10:09:34.884Z,5.32
2023-12-23T10:11:36.740Z,5.41
2023-12-23T10:13:38.502Z,5.54
2023-12-23T10:15:42.387Z,5.74
2023-12-23T10:17:44.181Z,5.62
2023-12-23T10:19:48.400Z,5.46
2023-12-23T10:21:50.226Z,5.57
2023-12-23T10:23:52.166Z,5.55
2023-12-23T10:25:54.010Z,5.69
2023-12-23T10:27:59.974Z,5.88
2023-12-23T10:30:05.060Z,6.06
2023-12-23T10:32:07.610Z,6.05
2023-12-23T10:34:12.876Z,5.82
2023-12-23T10:36:15.854Z,5.81
2023-12-23T10:38:22.049Z,5.67
2023-12-23T10:40:29.307Z,5.64
2023-12-23T10:42:31.821Z,5.57
2023-12-23T10:44:34.438Z,5.49
2023-12-23T10:46:36.308Z,5.36
2023-12-23T10:48:39.423Z,5.51
2023-12-23T10:50:42.072Z,5.31
2023-12-23T10:52:44.338Z,5.53
2023-12-23T10:54:46.410Z,5.65
2023-12-23T10:56:50.678Z,5.79
2023-12-23T10:58:52.765Z,5.92
2023-12-23T11:00:55.538Z,6.06
2023-12-23T11:02:59.075Z,6.11
2023-12-23T11:05:03.628Z,6.16
2023-12-23T11:07:06.022Z,5.97
2023-12-23T11:09:09.777Z,6.18
2023-12-23T11:11:11.973Z,6.27
2023-12-23T11:13:14.765Z,6.43
2023-12-23T11:15:16.752Z,6.55
2023-12-23T11:17:26.058Z,6.63
2023-12-23T11:19:28.039Z,6.60
2023-12-23T11:21:31.303Z,6.55
2023-12-23T11:23:34.133Z,6.32
2023-12-23T11:25:40.399Z,6.47
2023-12-23T11:27:42.360Z,6.45
2023-12-23T11:29:44.136Z,6.40
2023-12-23T11:31:45.896Z,6.39
2023-12-23T11:33:47.929Z,6.47
2023-12-23T11:36:02.809Z,6.47
2023-12-23T11:38:05.059Z,6.52
2023-12-23T11:40:07.708Z,6.63
2023-12-23T11:42:09.854Z,6.78
2023-12-23T11:44:14.851Z,6.65
2023-12-23T11:46:18.759Z,6.70
2023-12-23T11:48:22.575Z,6.63
2023-12-23T11:50:24.592Z,6.64
2023-12-23T11:52:26.843Z,6.51
2023-12-23T11:54:29.065Z,6.41
2023-12-23T11:56:31.018Z,5.99
2023-12-23T11:58:33.288Z,5.65
2023-12-23T12:00:37.698Z,5.74
2023-12-23T12:02:39.461Z,5.71
2023-12-23T12:04:41.227Z,5.87
2023-12-23T12:06:43.070Z,6.10
2023-12-23T12:08:44.866Z,6.19
2023-12-23T12:10:47.519Z,6.31
2023-12-23T12:12:50.208Z,6.25
2023-12-23T12:14:52.324Z,6.35
2023-12-23T12:16:54.922Z,6.50
2023-12-23T12:18:56.819Z,6.76
2023-12-23T12:20:58.786Z,6.83
2023-12-23T12:23:02.475Z,6.86
2023-12-23T12:25:05.556Z,6.86
2023-12-23T12:27:07.396Z,6.80
2023-12-23T12:29:09.952Z,6.84
2023-12-23T12:31:13.881Z,6.79
2023-12-23T12:33:18.696Z,6.72
2023-12-23T12:35:20.577Z,6.55
2023-12-23T12:37:22.456Z,6.36
2023-12-23T12:39:24.458Z,6.23
2023-12-23T12:41:26.374Z,6.12
2023-12-23T12:43:32.837Z,6.15
2023-12-23T12:45:42.069Z,5.85
2023-12-23T12:47:46.153Z,5.85
2023-12-23T12:49:59.435Z,5.85
2023-12-23T12:52:07.793Z,5.65
2023-12-23T12:54:10.075Z,5.54
2023-12-23T12:56:13.004Z,5.47
2023-12-23T12:58:15.239Z,5.31
2023-12-23T13:00:17.324Z,5.38
2023-12-23T13:02:20.062Z,5.30
2023-12-23T13:04:22.025Z,5.28
2023-12-23T13:06:23.734Z,5.26
2023-12-23T13:08:25.573Z,5.31
2023-12-23T13:10:27.476Z,5.20
2023-12-23T13:12:29.237Z,5.09
2023-12-23T13:14:31.014Z,5.20
2023-12-23T13:16:32.759Z,5.23
2023-12-23T13:18:45.574Z,5.22
2023-12-23T13:20:54.728Z,5.20
2023-12-23T13:22:56.786Z,5.52
2023-12-23T13:24:58.941Z,5.61
2023-12-23T13:27:00.621Z,5.62
2023-12-23T13:29:02.417Z,5.65
2023-12-23T13:31:04.763Z,5.85
2023-12-23T13:33:08.619Z,5.93
2023-12-23T13:35:10.289Z,6.02
2023-12-23T13:37:12.095Z,6.13
2023-12-23T13:39:14.274Z,6.27
2023-12-23T13:41:21.737Z,6.27
2023-12-23T13:43:24.640Z,6.34
2023-12-23T13:45:26.400Z,6.34
2023-12-23T13:47:28.463Z,6.40
2023-12-23T13:49:30.353Z,6.24
2023-12-23T13:51:33.281Z,6.11
2023-12-23T13:53:35.102Z,5.95
2023-12-23T13:55:36.884Z,5.90
2023-12-23T13:57:38.598Z,6.07
2023-12-23T13:59:40.392Z,6.11
2023-12-23T14:01:42.209Z,6.31
2023-12-23T14:03:45.265Z,6.44
2023-12-23T14:05:47.547Z,6.53
2023-12-23T14:07:49.480Z,6.68
2023-12-23T14:09:51.357Z,6.58
2023-12-23T14:11:53.228Z,6.59
2023-12-23T14:13:54.999Z,6.68
2023-12-23T14:15:57.080Z,6.77
2023-12-23T14:17:58.970Z,6.73
2023-12-23T14:20:00.780Z,6.77
2023-12-23T14:22:02.563Z,6.77
2023-12-23T14:24:04.706Z,6.73
2023-12-23T14:26:06.522Z,6.56
2023-12-23T14:28:08.282Z,6.44
2023-12-23T14:30:10.833Z,6.28
2023-12-23T14:32:12.657Z,6.00
2023-12-23T14:34:15.207Z,5.96
2023-12-23T14:36:17.405Z,5.85
2023-12-23T14:38:19.286Z,5.63
2023-12-23T14:40:21.104Z,5.21
2023-12-23T14:42:22.845Z,5.06
2023-12-23T14:44:24.687Z,5.11
2023-12-23T14:46:26.529Z,5.07
2023-12-23T14:48:28.542Z,5.17
2023-12-23T14:50:30.527Z,5.08
2023-12-23T14:52:32.429Z,5.20
2023-12-23T14:54:34.292Z,5.23
2023-12-23T14:56:36.167Z,5.39
2023-12-23T14:58:37.918Z,5.22
2023-12-23T15:00:43.120Z,5.23
2023-12-23T15:02:45.035Z,5.11
2023-12-23T15:04:46.878Z,5.12
2023-12-23T15:06:49.128Z,5.09
2023-12-23T15:08:50.937Z,4.95
2023-12-23T15:10:52.774Z,4.91
2023-12-23T15:12:54.817Z,4.80
2023-12-23T15:14:56.689Z,4.90
2023-12-23T15:16:59.539Z,4.93
2023-12-23T15:19:01.961Z,4.80
2023-12-23T15:21:04.551Z,4.79
2023-12-23T15:23:06.309Z,4.77
2023-12-23T15:25:08.193Z,4.74
2023-12-23T15:27:09.952Z,4.68
2023-12-23T15:29:11.751Z,4.64
2023-12-23T15:31:13.614Z,4.53
2023-12-23T15:33:16.082Z,4.64
2023-12-23T15:35:19.447Z,4.52
2023-12-23T15:37:22.008Z,4.51
2023-12-23T15:39:23.789Z,4.39
2023-12-23T15:41:25.556Z,4.18
2023-12-23T15:43:27.518Z,4.03
2023-12-23T15:45:29.229Z,4.11
2023-12-23T15:47:31.140Z,4.09
2023-12-23T15:49:35.218Z,3.98
2023-12-23T15:51:39.069Z,4.09
2023-12-23T15:53:41.723Z,4.15
2023-12-23T15:55:43.656Z,4.00
2023-12-23T15:57:45.486Z,4.00
2023-12-23T15:59:47.282Z,4.00
2023-12-23T16:01:49.048Z,3.90
2023-12-23T16:03:50.870Z,3.86
2023-12-23T16:05:53.010Z,3.89
2023-12-23T16:07:54.842Z,3.91
2023-12-23T16:09:56.577Z,3.91
2023-12-23T16:11:58.456Z,3.96
2023-12-23T16:14:02.611Z,4.03
2023-12-23T16:16:06.340Z,4.00
2023-12-23T16:18:09.035Z,3.75
2023-12-23T16:20:11.478Z,3.80
2023-12-23T16:22:13.592Z,3.74
2023-12-23T16:24:15.404Z,3.60
2023-12-23T16:26:17.828Z,3.61
2023-12-23T16:28:19.652Z,3.67
2023-12-23T16:30:21.609Z,3.86
2023-12-23T16:32:23.489Z,4.07
2023-12-23T16:34:25.335Z,4.22
2023-12-23T16:36:27.147Z,4.43
2023-12-23T16:38:28.994Z,4.65
2023-12-23T16:40:30.828Z,4.77
2023-12-23T16:42:35.551Z,4.86
2023-12-23T16:44:37.514Z,4.94
2023-12-23T16:46:39.259Z,4.91
2023-12-23T16:48:41.192Z,4.90
2023-12-23T16:50:44.502Z,4.99
2023-12-23T16:52:46.418Z,4.93
2023-12-23T16:54:48.527Z,4.77
2023-12-23T16:56:50.202Z,4.67
2023-12-23T16:58:52.004Z,4.61
2023-12-23T17:00:53.782Z,4.69
2023-12-23T17:02:55.672Z,4.71
2023-12-23T17:04:57.560Z,4.86
2023-12-23T17:06:59.371Z,4.99
2023-12-23T17:09:01.072Z,5.02
2023-12-23T17:11:02.793Z,5.08
2023-12-23T17:13:05.281Z,4.91
2023-12-23T17:15:08.131Z,4.80
2023-12-23T17:17:10.746Z,4.90
2023-12-23T17:19:12.673Z,4.91
2023-12-23T17:21:14.471Z,4.93
2023-12-23T17:23:16.365Z,5.03
2023-12-23T17:25:18.219Z,5.16
2023-12-23T17:27:19.979Z,5.18
2023-12-23T17:29:21.768Z,5.22
2023-12-23T17:31:23.637Z,5.20
2023-12-23T17:33:25.541Z,5.27
2023-12-23T17:35:27.478Z,5.23
2023-12-23T17:37:29.214Z,5.14
2023-12-23T17:39:30.932Z,5.16
2023-12-23T17:41:32.945Z,5.03
2023-12-23T17:43:35.617Z,5.13
2023-12-23T17:45:38.745Z,5.10
2023-12-23T17:47:42.987Z,5.07
2023-12-23T17:49:44.828Z,4.89
2023-12-23T17:51:46.672Z,5.04
2023-12-23T17:53:48.667Z,5.00
2023-12-23T17:55:50.483Z,4.89
2023-12-23T17:57:52.282Z,4.74
2023-12-23T17:59:54.040Z,4.86
2023-12-23T18:01:55.877Z,5.00
2023-12-23T18:03:57.671Z,4.85
2023-12-23T18:05:59.527Z,4.96
2023-12-23T18:08:01.298Z,4.98
2023-12-23T18:10:04.481Z,5.09
2023-12-23T18:12:06.404Z,4.66
2023-12-23T18:14:08.219Z,4.69
2023-12-23T18:16:10.001Z,4.22
2023-12-23T18:18:11.853Z,4.40
2023-12-23T18:20:13.636Z,4.65
2023-12-23T18:22:15.531Z,4.42
2023-12-23T18:24:17.503Z,4.17
2023-12-23T18:26:19.290Z,4.27
2023-12-23T18:28:21.139Z,4.22
2023-12-23T18:30:23.277Z,4.44
2023-12-23T18:32:25.160Z,4.57
2023-12-23T18:34:28.174Z,4.49
2023-12-23T18:36:30.027Z,4.51
2023-12-23T18:38:31.894Z,4.62
2023-12-23T18:40:33.713Z,4.81
2023-12-23T18:42:35.448Z,4.91
2023-12-23T18:44:37.296Z,5.06
2023-12-23T18:46:39.230Z,5.15
2023-12-23T18:48:41.069Z,5.19
2023-12-23T18:50:43.473Z,5.00
2023-12-23T18:52:45.778Z,4.95
2023-12-23T18:54:47.446Z,4.84
2023-12-23T18:56:49.232Z,4.92
2023-12-23T18:58:51.133Z,5.03
2023-12-23T19:00:53.914Z,5.15
2023-12-23T19:02:56.182Z,4.91
2023-12-23T19:05:03.127Z,5.02
2023-12-23T19:07:07.267Z,5.14
2023-12-23T19:09:08.973Z,5.16
2023-12-23T19:11:10.819Z,5.04
2023-12-23T19:13:13.299Z,4.95
2023-12-23T19:15:15.254Z,4.81
2023-12-23T19:17:17.318Z,4.52
2023-12-23T19:19:19.352Z,4.62
2023-12-23T19:21:21.499Z,4.71
2023-12-23T19:23:23.527Z,4.86
2023-12-23T19:25:25.570Z,4.78
2023-12-23T19:27:27.249Z,5.01
2023-12-23T19:29:29.091Z,4.89
2023-12-23T19:31:33.267Z,4.78
2023-12-23T19:33:35.579Z,4.82
2023-12-23T19:35:37.610Z,4.95
2023-12-23T19:37:39.644Z,5.00
2023-12-23T19:39:44.795Z,5.06
2023-12-23T19:41:50.705Z,5.02
2023-12-23T19:43:52.454Z,4.82
2023-12-23T19:45:55.228Z,4.84
2023-12-23T19:47:57.227Z,5.04
2023-12-23T19:49:59.321Z,5.10
2023-12-23T19:52:01.012Z,5.22
2023-12-23T19:54:02.853Z,5.38
2023-12-23T19:56:05.044Z,5.37
2023-12-23T19:58:07.047Z,5.38
2023-12-23T20:00:10.815Z,5.18
2023-12-23T20:02:12.602Z,4.99
2023-12-23T20:04:15.146Z,4.83
2023-12-23T20:06:19.790Z,4.88
2023-12-23T20:08:21.698Z,5.04
2023-12-23T20:10:23.389Z,4.88
2023-12-23T20:12:25.174Z,4.97
2023-12-23T20:14:27.111Z,5.05
2023-12-23T20:16:29.120Z,5.20
2023-12-23T20:18:31.068Z,5.39
2023-12-23T20:20:32.929Z,5.55
2023-12-23T20:22:35.967Z,5.51
2023-12-23T20:24:37.880Z,5.39
2023-12-23T20:26:39.796Z,5.49
2023-12-23T20:28:41.544Z,5.64
2023-12-23T20:30:43.569Z,5.57
2023-12-23T20:32:45.709Z,5.27
2023-12-23T20:34:47.481Z,5.21
2023-12-23T20:36:49.316Z,5.13
2023-12-23T20:38:51.030Z,5.22
2023-12-23T20:40:52.815Z,5.29
2023-12-23T20:42:55.001Z,5.25
2023-12-23T20:44:57.078Z,5.11
2023-12-23T20:46:58.995Z,5.26
2023-12-23T20:49:01.890Z,5.33
2023-12-23T20:51:07.957Z,5.46
2023-12-23T20:53:09.701Z,5.49
2023-12-23T20:55:14.469Z,5.49
2023-12-23T20:57:16.237Z,5.56
2023-12-23T20:59:17.980Z,5.70
2023-12-23T21:01:24.218Z,5.74
2023-12-23T21:03:26.075Z,5.68
2023-12-23T21:05:28.106Z,5.59
2023-12-23T21:07:29.983Z,5.61
2023-12-23T21:09:31.708Z,5.72
2023-12-23T21:11:33.633Z,5.85
2023-12-23T21:13:35.453Z,5.74
2023-12-23T21:15:38.525Z,5.73
2023-12-23T21:17:40.472Z,5.81
2023-12-23T21:19:42.319Z,5.83
2023-12-23T21:21:44.226Z,5.78
2023-12-23T21:23:45.970Z,5.77
2023-12-23T21:25:47.847Z,5.93
2023-12-23T21:27:49.639Z,6.10
2023-12-23T21:29:51.677Z,6.18
2023-12-23T21:31:53.534Z,6.30
2023-12-23T21:33:55.286Z,6.34
2023-12-23T21:35:57.131Z,6.28
2023-12-23T21:37:58.985Z,6.36
2023-12-23T21:40:00.810Z,6.31
2023-12-23T21:42:02.749Z,6.33
2023-12-23T21:44:04.958Z,6.33
2023-12-23T21:46:06.716Z,6.45
2023-12-23T21:48:08.755Z,6.51
2023-12-23T21:50:10.592Z,6.40
2023-12-23T21:52:12.398Z,6.46
2023-12-23T21:54:14.334Z,6.55
2023-12-23T21:56:16.117Z,6.46
2023-12-23T21:58:17.932Z,6.54
2023-12-23T22:00:20.061Z,6.66
2023-12-23T22:02:22.004Z,6.78
2023-12-23T22:04:23.704Z,6.72
2023-12-23T22:06:25.466Z,6.78
2023-12-23T22:08:27.453Z,6.52
2023-12-23T22:10:29.836Z,6.54
2023-12-23T22:12:31.758Z,6.65
2023-12-23T22:14:33.546Z,6.74
2023-12-23T22:16:35.414Z,6.80
2023-12-23T22:18:37.319Z,6.90
2023-12-23T22:20:39.154Z,6.84
2023-12-23T22:22:41.017Z,6.82
2023-12-23T22:24:44.265Z,6.91
2023-12-23T22:26:46.010Z,7.01
2023-12-23T22:28:47.903Z,7.12
2023-12-23T22:30:49.833Z,7.13
2023-12-23T22:32:52.962Z,7.17
2023-12-23T22:34:55.298Z,7.18
2023-12-23T22:36:57.299Z,6.85
2023-12-23T22:38:59.243Z,6.78
2023-12-23T22:41:02.335Z,6.66
2023-12-23T22:43:06.067Z,6.66
2023-12-23T22:45:08.348Z,6.67
2023-12-23T22:47:10.933Z,6.56
2023-12-23T22:49:12.734Z,6.59
2023-12-23T22:51:14.497Z,6.45
2023-12-23T22:53:16.371Z,6.38
2023-12-23T22:55:18.110Z,6.26
2023-12-23T22:57:19.883Z,6.26
2023-12-23T22:59:21.684Z,6.28
2023-12-23T23:01:23.403Z,6.33
2023-12-23T23:03:25.443Z,6.35
2023-12-23T23:05:28.643Z,6.36
2023-12-23T23:07:30.480Z,6.22
2023-12-23T23:09:32.272Z,6.29
2023-12-23T23:11:34.331Z,6.32
2023-12-23T23:13:36.170Z,6.17
2023-12-23T23:15:38.112Z,6.16
2023-12-23T23:17:40.127Z,6.13
2023-12-23T23:19:44.794Z,6.21
2023-12-23T23:21:46.539Z,6.33
2023-12-23T23:23:49.156Z,6.49
2023-12-23T23:25:50.892Z,6.66
2023-12-23T23:27:53.192Z,6.81
2023-12-23T23:29:55.104Z,6.87
2023-12-23T23:31:56.889Z,6.86
2023-12-23T23:33:58.844Z,6.64
2023-12-23T23:36:00.713Z,6.66
2023-12-23T23:38:02.514Z,6.57
2023-12-23T23:40:04.491Z,6.31
2023-12-23T23:42:06.415Z,6.26
2023-12-23T23:44:08.232Z,6.45
2023-12-23T23:46:15.747Z,6.51
2023-12-23T23:48:17.496Z,6.40
2023-12-23T23:50:19.409Z,6.52
2023-12-23T23:52:21.363Z,6.64
2023-12-23T23:54:23.086Z,6.73
2023-12-23T23:56:25.257Z,6.83
2023-12-23T23:58:27.183Z,6.83
